Time;durP1;ratioP1;P1;durP2;ratioP2;P2;SDS_P1;SDS_P2;PMS_P1;PMS_P2;Temp;Humidity;BMP_temperature;BMP_pressure;BME280_temperature;BME280_humidity;BME280_pressure;Samples;Min_cycle;Max_cycle;Signal;HPM_P1;HPM_P2
2022/06/26 00:00:14;;;;;;;22.75;14.02;;;19.20;99.90;;;;;;5053607;22;20128;-69
2022/06/26 00:02:40;;;;;;;22.58;14.48;;;18.30;99.90;;;;;;5014160;28;20037;-69
2022/06/26 00:05:07;;;;;;;19.65;13.02;;;18.90;99.90;;;;;;5032027;28;20425;-69
2022/06/26 00:07:34;;;;;;;20.95;14.85;;;18.10;99.90;;;;;;5032103;28;20033;-69
2022/06/26 00:10:00;;;;;;;23.83;15.95;;;18.30;99.90;;;;;;5029999;28;20033;-69
2022/06/26 00:12:26;;;;;;;24.60;17.33;;;18.30;99.90;;;;;;5031814;28;20041;-69
2022/06/26 00:14:51;;;;;;;24.40;18.67;;;18.10;99.90;;;;;;5031748;28;20040;-69
2022/06/26 00:17:17;;;;;;;21.92;17.73;;;18.20;99.90;;;;;;5030622;28;20045;-69
2022/06/26 00:19:43;;;;;;;24.00;16.98;;;18.30;99.90;;;;;;5031149;28;20554;-69
2022/06/26 00:22:09;;;;;;;17.95;15.70;;;18.70;99.90;;;;;;5014102;28;20120;-69
2022/06/26 00:24:35;;;;;;;21.70;16.27;;;19.40;99.90;;;;;;5030451;28;20408;-70
2022/06/26 00:27:06;;;;;;;25.40;17.98;;;18.20;99.90;;;;;;5030407;28;20573;-69
2022/06/26 00:29:35;;;;;;;24.70;14.57;;;18.30;99.90;;;;;;5029807;28;20083;-69
2022/06/26 00:32:02;;;;;;;13.98;10.85;;;17.90;99.90;;;;;;5031795;28;20099;-70
2022/06/26 00:34:28;;;;;;;21.00;10.57;;;17.80;99.90;;;;;;5030761;28;20150;-69
2022/06/26 00:36:54;;;;;;;14.60;10.27;;;17.80;99.90;;;;;;5032183;28;20496;-69
2022/06/26 00:39:19;;;;;;;18.20;10.65;;;17.80;99.90;;;;;;5030898;28;20407;-69
2022/06/26 00:41:45;;;;;;;15.55;10.77;;;17.90;99.90;;;;;;5031526;28;20037;-69
2022/06/26 00:44:15;;;;;;;18.20;11.82;;;18.10;99.90;;;;;;5030249;28;20423;-69
2022/06/26 00:46:42;;;;;;;16.50;11.25;;;17.90;99.90;;;;;;5030364;28;20080;-69
2022/06/26 00:49:08;;;;;;;15.27;11.38;;;18.80;99.90;;;;;;5030804;28;20045;-69
2022/06/26 00:51:36;;;;;;;17.35;11.82;;;18.00;99.90;;;;;;5029656;28;20060;-69
2022/06/26 00:54:02;;;;;;;17.33;12.05;;;18.10;99.90;;;;;;5031328;28;20054;-69
2022/06/26 00:56:27;;;;;;;17.30;10.80;;;18.40;99.90;;;;;;5031345;28;20048;-69
2022/06/26 00:58:53;;;;;;;14.52;9.00;;;18.20;99.90;;;;;;5030917;28;20041;-68
2022/06/26 01:01:19;;;;;;;14.02;9.00;;;18.10;99.90;;;;;;5046030;28;20032;-69
2022/06/26 01:03:44;;;;;;;12.82;8.20;;;18.30;99.90;;;;;;5017200;28;20041;-70
2022/06/26 01:06:10;;;;;;;11.23;6.95;;;18.80;99.90;;;;;;5051078;28;20041;-70
2022/06/26 01:08:35;;;;;;;8.82;5.43;;;19.40;99.90;;;;;;5051290;28;20052;-69
2022/06/26 01:11:02;;;;;;;9.40;4.32;;;18.20;99.90;;;;;;5032338;28;20067;-69
2022/06/26 01:13:28;;;;;;;7.40;4.38;;;19.00;99.90;;;;;;5033131;28;20446;-69
2022/06/26 01:15:53;;;;;;;9.75;4.75;;;18.10;99.90;;;;;;5054345;28;20076;-69
2022/06/26 01:18:20;;;;;;;5.68;3.15;;;18.10;99.90;;;;;;5037598;28;20068;-69
2022/06/26 01:20:54;;;;;;;4.45;2.60;;;18.10;99.90;;;;;;5019806;28;20095;-70
2022/06/26 01:23:19;;;;;;;5.68;2.70;;;19.50;99.90;;;;;;5055605;28;20067;-70
2022/06/26 01:25:48;;;;;;;5.13;2.33;;;18.60;99.90;;;;;;5037632;28;20045;-69
2022/06/26 01:28:15;;;;;;;5.38;2.17;;;19.40;99.90;;;;;;5037308;28;20041;-69
2022/06/26 01:30:41;;;;;;;5.40;2.20;;;17.90;99.90;;;;;;5054182;28;20453;-68
2022/06/26 01:33:08;;;;;;;4.00;2.30;;;18.00;99.90;;;;;;5054863;28;20048;-69
2022/06/26 01:35:34;;;;;;;5.20;2.15;;;18.70;99.90;;;;;;5020571;28;20084;-69
2022/06/26 01:38:10;;;;;;;4.43;2.17;;;19.20;99.90;;;;;;5037054;28;20036;-69
2022/06/26 01:40:36;;;;;;;6.93;2.10;;;18.10;99.90;;;;;;5054215;28;20033;-70
2022/06/26 01:43:02;;;;;;;4.70;2.63;;;18.40;99.90;;;;;;5054801;28;20513;-69
2022/06/26 01:45:27;;;;;;;5.35;2.25;;;19.10;99.90;;;;;;5036758;28;20045;-69
2022/06/26 01:47:54;;;;;;;3.25;2.35;;;18.30;99.90;;;;;;5036687;28;20064;-69
2022/06/26 01:50:20;;;;;;;5.68;2.67;;;19.20;99.90;;;;;;5053645;28;20403;-69
2022/06/26 01:52:45;;;;;;;7.35;2.13;;;18.80;99.90;;;;;;5036568;28;20037;-69
2022/06/26 01:55:11;;;;;;;4.32;2.05;;;18.90;99.90;;;;;;5036773;28;20119;-69
2022/06/26 01:57:37;;;;;;;3.28;1.95;;;19.00;99.90;;;;;;5054455;28;20112;-70
2022/06/26 02:00:06;;;;;;;7.25;2.78;;;17.90;99.90;;;;;;5034403;28;20059;-69
2022/06/26 02:02:33;;;;;;;3.33;1.92;;;17.90;99.90;;;;;;5036554;28;20393;-69
2022/06/26 02:04:59;;;;;;;3.97;1.73;;;18.60;99.90;;;;;;5054345;28;20041;-69
2022/06/26 02:07:25;;;;;;;3.67;2.13;;;18.00;99.90;;;;;;5036283;28;20418;-69
2022/06/26 02:15:30;;;;;;;2.40;1.70;;;18.20;99.90;;;;;;4983231;28;20042;-69
2022/06/26 02:17:55;;;;;;;5.00;1.90;;;19.70;99.90;;;;;;5036104;28;20396;-69
2022/06/26 02:20:21;;;;;;;2.67;1.60;;;18.80;99.90;;;;;;5053142;28;20064;-69
2022/06/26 02:22:46;;;;;;;3.05;1.80;;;17.90;99.90;;;;;;5053719;28;20556;-69
2022/06/26 02:25:12;;;;;;;3.33;1.90;;;17.90;99.90;;;;;;5053626;28;20044;-69
2022/06/26 02:27:38;;;;;;;2.95;1.80;;;17.90;99.90;;;;;;5054248;28;20040;-69
2022/06/26 02:30:04;;;;;;;3.63;2.08;;;19.00;99.90;;;;;;5018612;28;20052;-69
2022/06/26 02:32:29;;;;;;;3.00;2.00;;;17.90;99.90;;;;;;5053977;28;20048;-70
2022/06/26 02:34:55;;;;;;;5.53;2.15;;;17.80;99.90;;;;;;5053824;28;20495;-69
2022/06/26 02:37:20;;;;;;;6.65;2.40;;;18.00;99.90;;;;;;5053696;28;20130;-69
2022/06/26 02:39:46;;;;;;;3.65;2.45;;;18.90;99.90;;;;;;5052847;28;20037;-69
2022/06/26 02:42:12;;;;;;;4.82;2.30;;;17.70;99.90;;;;;;5035899;28;20116;-69
2022/06/26 02:44:37;;;;;;;6.30;2.80;;;18.70;99.90;;;;;;5035892;28;20040;-67
2022/06/26 02:47:03;;;;;;;5.13;2.90;;;17.80;99.90;;;;;;5035539;28;20041;-69
2022/06/26 02:49:28;;;;;;;4.50;2.67;;;17.70;99.90;;;;;;5018249;28;20051;-69
2022/06/26 02:51:54;;;;;;;4.28;2.90;;;18.60;99.90;;;;;;5053362;28;20111;-69
2022/06/26 02:54:20;;;;;;;5.20;3.10;;;17.80;99.90;;;;;;5053442;28;20067;-69
2022/06/26 02:56:45;;;;;;;7.00;3.03;;;17.60;99.90;;;;;;5035606;28;20045;-70
2022/06/26 02:59:11;;;;;;;6.50;3.25;;;17.50;99.90;;;;;;5034463;28;20052;-69
2022/06/26 03:01:36;;;;;;;5.22;3.38;;;17.80;99.90;;;;;;5051296;28;20044;-69
2022/06/26 03:04:02;;;;;;;5.43;2.80;;;19.20;99.90;;;;;;5052964;28;20041;-69
2022/06/26 03:06:28;;;;;;;4.05;2.80;;;17.70;99.90;;;;;;5035404;28;20045;-69
2022/06/26 03:08:53;;;;;;;6.55;3.63;;;17.70;99.90;;;;;;5034792;28;20494;-69
2022/06/26 03:11:19;;;;;;;6.32;3.50;;;18.40;99.90;;;;;;5034963;28;20503;-69
2022/06/26 03:13:44;;;;;;;2.50;2.25;;;19.00;99.90;;;;;;5034989;28;20041;-69
2022/06/26 03:16:10;;;;;;;7.65;2.72;;;18.10;99.90;;;;;;5052965;28;20033;-69
2022/06/26 03:18:35;;;;;;;4.03;3.03;;;17.60;99.90;;;;;;5034922;28;20094;-70
2022/06/26 03:21:01;;;;;;;4.07;3.50;;;17.70;99.90;;;;;;5034319;28;20064;-69
2022/06/26 03:26:11;;;;;;;7.88;4.07;;;18.40;99.90;;;;;;5052816;28;20053;-69
2022/06/26 03:28:36;;;;;;;4.45;3.20;;;17.80;99.90;;;;;;5018346;28;20387;-70
2022/06/26 03:31:02;;;;;;;5.82;4.38;;;19.30;99.90;;;;;;5034220;28;20036;-69
2022/06/26 03:33:28;;;;;;;9.18;4.13;;;17.80;99.90;;;;;;5018065;28;20055;-69
2022/06/26 03:35:53;;;;;;;6.50;4.25;;;17.70;99.90;;;;;;5052659;28;20463;-69
2022/06/26 03:38:19;;;;;;;4.53;3.20;;;17.90;99.90;;;;;;5033961;28;20037;-70
2022/06/26 03:40:44;;;;;;;6.65;4.55;;;18.50;99.90;;;;;;5017266;28;20037;-69
2022/06/26 03:43:11;;;;;;;13.73;4.80;;;17.80;99.90;;;;;;5052852;28;20059;-69
2022/06/26 03:45:38;;;;;;;4.65;3.95;;;17.80;99.90;;;;;;5052375;28;20037;-69
2022/06/26 03:48:04;;;;;;;8.32;4.03;;;18.00;99.90;;;;;;5034596;28;20403;-69
2022/06/26 03:50:30;;;;;;;4.07;3.45;;;17.80;99.90;;;;;;5033479;28;20040;-69
2022/06/26 03:52:55;;;;;;;7.45;4.30;;;17.80;99.90;;;;;;5034180;28;20060;-70
2022/06/26 03:55:21;;;;;;;5.18;4.38;;;19.00;99.90;;;;;;5052268;28;20048;-69
2022/06/26 03:57:47;;;;;;;7.28;5.03;;;17.80;99.90;;;;;;5052170;28;20514;-69
2022/06/26 04:00:12;;;;;;;7.63;4.00;;;17.70;99.90;;;;;;5031613;28;20037;-70
2022/06/26 04:02:39;;;;;;;5.25;3.90;;;17.80;99.90;;;;;;5034142;28;20040;-69
2022/06/26 04:05:05;;;;;;;5.38;3.83;;;18.90;99.90;;;;;;5052083;28;20040;-69
2022/06/26 04:07:31;;;;;;;8.13;4.80;;;17.80;99.90;;;;;;5033966;28;20123;-70
2022/06/26 04:09:56;;;;;;;6.97;4.38;;;17.90;99.90;;;;;;5033355;28;20410;-69
2022/06/26 04:12:22;;;;;;;8.52;4.22;;;18.00;99.90;;;;;;5051762;28;20036;-69
2022/06/26 04:14:48;;;;;;;7.70;5.35;;;18.00;99.90;;;;;;5052004;28;20049;-69
2022/06/26 04:17:14;;;;;;;6.35;4.50;;;18.70;99.90;;;;;;5034136;28;20116;-69
2022/06/26 04:19:40;;;;;;;8.48;4.22;;;17.80;99.90;;;;;;5051076;28;20367;-69
2022/06/26 04:22:05;;;;;;;7.07;4.30;;;18.30;99.90;;;;;;5051673;28;20120;-69
2022/06/26 04:24:31;;;;;;;6.03;4.13;;;18.70;99.90;;;;;;5052169;28;20071;-69
2022/06/26 04:26:57;;;;;;;6.78;4.13;;;18.60;99.90;;;;;;5033785;28;20033;-69
2022/06/26 04:29:22;;;;;;;6.78;4.93;;;17.80;99.90;;;;;;5032918;28;20044;-69
2022/06/26 04:31:48;;;;;;;4.13;3.33;;;17.80;99.90;;;;;;5017156;28;20513;-69
2022/06/26 04:34:14;;;;;;;5.93;4.15;;;17.90;99.90;;;;;;5033845;28;20052;-69
2022/06/26 04:36:40;;;;;;;4.85;4.00;;;17.80;99.90;;;;;;5033543;28;20041;-70
2022/06/26 04:39:05;;;;;;;4.75;3.50;;;18.90;99.90;;;;;;5033354;28;20059;-69
2022/06/26 04:41:31;;;;;;;4.90;3.78;;;17.90;99.90;;;;;;5051194;28;20040;-69
2022/06/26 04:43:57;;;;;;;4.30;3.60;;;19.90;99.90;;;;;;5033577;28;20048;-69
2022/06/26 04:46:22;;;;;;;4.75;3.83;;;17.90;99.90;;;;;;5051576;28;20048;-70
2022/06/26 04:48:48;;;;;;;6.18;3.92;;;19.20;99.90;;;;;;5050542;28;20174;-69
2022/06/26 04:51:13;;;;;;;5.47;4.13;;;19.20;99.90;;;;;;5015668;28;20048;-69
2022/06/26 04:53:39;;;;;;;5.07;3.60;;;18.20;99.90;;;;;;5033406;28;20482;-69
2022/06/26 04:56:05;;;;;;;6.40;4.20;;;19.20;99.90;;;;;;5033707;28;20052;-69
2022/06/26 04:58:31;;;;;;;5.15;3.97;;;18.00;99.90;;;;;;5033545;28;20076;-69
2022/06/26 05:00:56;;;;;;;6.13;4.30;;;19.40;99.90;;;;;;5030717;28;20040;-69
2022/06/26 05:03:22;;;;;;;5.78;4.85;;;18.20;99.90;;;;;;5051292;28;20102;-69
2022/06/26 05:05:48;;;;;;;7.35;5.53;;;18.20;99.90;;;;;;5033513;28;20107;-70
2022/06/26 05:08:13;;;;;;;5.63;4.65;;;18.20;99.90;;;;;;5051120;28;20045;-68
2022/06/26 05:10:39;;;;;;;7.28;6.35;;;18.30;99.90;;;;;;5050574;28;20037;-69
2022/06/26 05:13:04;;;;;;;8.35;6.28;;;18.60;99.90;;;;;;5051240;28;20047;-69
2022/06/26 05:15:30;;;;;;;7.28;5.47;;;18.40;99.90;;;;;;5033282;28;20044;-70
2022/06/26 05:17:55;;;;;;;12.13;7.03;;;18.50;99.90;;;;;;5051146;28;20415;-69
2022/06/26 05:20:21;;;;;;;9.73;7.63;;;19.80;99.90;;;;;;5032474;28;20094;-69
2022/06/26 05:22:46;;;;;;;8.00;7.18;;;19.20;99.90;;;;;;5051004;28;20041;-69
2022/06/26 05:25:12;;;;;;;9.32;7.88;;;18.50;99.90;;;;;;5017052;28;20127;-69
2022/06/26 05:27:37;;;;;;;14.65;10.05;;;18.30;99.90;;;;;;5050998;28;20041;-69
2022/06/26 05:30:04;;;;;;;15.38;12.52;;;18.40;99.90;;;;;;5016350;28;20041;-69
2022/06/26 05:32:29;;;;;;;17.27;13.82;;;18.50;99.90;;;;;;5051099;28;20094;-70
2022/06/26 05:34:55;;;;;;;20.02;15.18;;;18.50;99.90;;;;;;5033269;28;20033;-70
2022/06/26 05:37:21;;;;;;;20.75;15.80;;;18.40;99.90;;;;;;5033412;28;20123;-69
2022/06/26 05:39:46;;;;;;;22.30;16.40;;;18.30;99.90;;;;;;5032359;28;20518;-69
2022/06/26 05:42:12;;;;;;;23.13;18.05;;;18.50;99.90;;;;;;5033246;28;20453;-69
2022/06/26 05:44:37;;;;;;;26.35;19.58;;;19.00;99.90;;;;;;5032949;28;20029;-69
2022/06/26 05:47:04;;;;;;;26.55;20.20;;;18.30;99.90;;;;;;5050956;28;20041;-69
2022/06/26 05:49:30;;;;;;;25.73;19.55;;;18.40;99.90;;;;;;5032157;28;20514;-69
2022/06/26 05:51:56;;;;;;;30.15;21.58;;;18.40;99.90;;;;;;5016128;28;20040;-70
2022/06/26 05:54:22;;;;;;;31.33;23.85;;;18.70;99.90;;;;;;5050977;28;20698;-69
2022/06/26 05:56:47;;;;;;;25.70;20.67;;;19.20;99.90;;;;;;5050939;28;20037;-69
2022/06/26 05:59:13;;;;;;;33.00;23.80;;;18.40;99.90;;;;;;5050077;28;20037;-69
2022/06/26 06:01:39;;;;;;;24.33;20.05;;;18.70;99.90;;;;;;5120723;22;20062;-70
2022/06/26 06:04:04;;;;;;;29.00;22.05;;;18.90;99.90;;;;;;5098249;28;20043;-71
2022/06/26 06:06:30;;;;;;;31.17;22.27;;;19.90;99.90;;;;;;5097366;28;20039;-71
2022/06/26 06:08:55;;;;;;;28.27;21.92;;;19.00;99.90;;;;;;5113985;28;20051;-69
2022/06/26 06:11:21;;;;;;;29.90;22.90;;;18.90;99.90;;;;;;5114808;28;20045;-71
2022/06/26 06:13:47;;;;;;;29.88;23.33;;;18.80;99.90;;;;;;5113688;28;20069;-70
2022/06/26 06:16:12;;;;;;;26.45;20.60;;;18.80;99.90;;;;;;5113719;28;20114;-71
2022/06/26 06:18:38;;;;;;;31.15;23.65;;;19.60;99.90;;;;;;5096573;28;20481;-71
2022/06/26 06:21:03;;;;;;;27.50;21.65;;;18.10;99.90;;;;;;5112690;28;20032;-72
2022/06/26 06:23:30;;;;;;;26.30;19.35;;;18.50;99.90;;;;;;5113593;28;20494;-70
2022/06/26 06:25:55;;;;;;;27.17;19.20;;;18.60;99.90;;;;;;5113795;28;20035;-71
2022/06/26 06:28:21;;;;;;;25.27;18.90;;;18.70;99.90;;;;;;5113451;28;20053;-71
2022/06/26 06:30:47;;;;;;;22.20;17.42;;;19.60;99.90;;;;;;5095596;28;20039;-70
2022/06/26 06:33:13;;;;;;;21.65;16.70;;;18.40;99.90;;;;;;5113145;28;20412;-70
2022/06/26 06:35:39;;;;;;;23.83;16.65;;;18.60;99.90;;;;;;5113531;28;20031;-70
2022/06/26 06:38:04;;;;;;;23.88;16.98;;;18.60;99.90;;;;;;5114829;28;20071;-70
2022/06/26 06:40:30;;;;;;;23.65;18.80;;;18.50;99.90;;;;;;5112417;28;20527;-70
2022/06/26 06:42:56;;;;;;;23.20;18.10;;;18.50;99.90;;;;;;5113447;28;20046;-70
2022/06/26 06:45:21;;;;;;;23.00;18.25;;;18.30;99.90;;;;;;5113186;28;20520;-70
2022/06/26 06:47:47;;;;;;;23.45;16.48;;;18.60;99.90;;;;;;5113058;28;20035;-71
2022/06/26 06:50:12;;;;;;;22.77;15.60;;;18.10;99.90;;;;;;5112544;28;20352;-70
2022/06/26 06:52:38;;;;;;;22.35;14.65;;;18.20;99.90;;;;;;5113264;28;20046;-70
2022/06/26 06:55:04;;;;;;;24.23;15.68;;;19.80;99.90;;;;;;5113282;28;20070;-70
2022/06/26 06:57:30;;;;;;;22.17;14.88;;;18.80;99.90;;;;;;5095864;28;20070;-70
2022/06/26 06:59:55;;;;;;;25.17;14.20;;;19.80;99.90;;;;;;5111413;28;20059;-68
2022/06/26 07:02:21;;;;;;;20.35;13.57;;;19.00;99.90;;;;;;5113320;28;20067;-71
2022/06/26 07:04:47;;;;;;;16.88;13.20;;;20.40;99.90;;;;;;5112770;28;20458;-71
2022/06/26 07:07:12;;;;;;;14.88;11.40;;;19.50;99.90;;;;;;5114160;28;20166;-70
2022/06/26 07:09:38;;;;;;;14.45;11.25;;;19.60;99.90;;;;;;5112163;28;20032;-73
2022/06/26 07:12:04;;;;;;;19.13;10.48;;;19.90;99.90;;;;;;5111732;28;20035;-70
2022/06/26 07:14:30;;;;;;;13.85;10.52;;;19.90;99.90;;;;;;5112414;28;20032;-71
2022/06/26 07:16:55;;;;;;;14.43;10.25;;;19.80;99.90;;;;;;5112510;28;20116;-70
2022/06/26 07:19:21;;;;;;;15.98;9.57;;;21.10;99.90;;;;;;5111680;28;20027;-70
2022/06/26 07:21:47;;;;;;;15.15;10.23;;;21.10;99.90;;;;;;5112636;28;20035;-70
2022/06/26 07:24:13;;;;;;;14.50;10.43;;;20.40;99.90;;;;;;5095733;28;20051;-71
2022/06/26 07:26:39;;;;;;;13.68;10.57;;;19.40;99.90;;;;;;5112355;28;20054;-71
2022/06/26 07:29:06;;;;;;;12.35;8.35;;;20.00;99.90;;;;;;5111727;28;20745;-70
2022/06/26 07:31:32;;;;;;;11.50;7.97;;;20.00;99.90;;;;;;5112421;28;20043;-71
2022/06/26 07:34:12;;;;;;;9.77;7.75;;;19.40;99.90;;;;;;5112065;28;20085;-73
2022/06/26 07:36:39;;;;;;;13.77;7.47;;;19.40;99.90;;;;;;5112202;28;20040;-70
2022/06/26 07:39:04;;;;;;;12.23;7.75;;;19.80;99.90;;;;;;5111440;28;20040;-70
2022/06/26 07:41:30;;;;;;;12.30;7.55;;;20.00;99.90;;;;;;5112024;28;20084;-70
2022/06/26 07:43:56;;;;;;;12.73;8.43;;;19.10;99.90;;;;;;5111924;28;20035;-71
2022/06/26 07:46:22;;;;;;;9.18;6.80;;;19.30;99.90;;;;;;5095246;28;20451;-69
2022/06/26 07:48:47;;;;;;;11.13;8.70;;;19.50;99.90;;;;;;5112050;28;20046;-71
2022/06/26 07:51:13;;;;;;;13.48;10.18;;;20.00;99.90;;;;;;5112405;28;20504;-70
2022/06/26 07:53:39;;;;;;;11.25;8.43;;;20.00;99.90;;;;;;5111763;28;20040;-72
2022/06/26 07:56:05;;;;;;;13.43;10.27;;;20.60;99.90;;;;;;5111718;28;20160;-71
2022/06/26 07:58:31;;;;;;;13.65;10.60;;;20.20;99.90;;;;;;5111790;28;20038;-72
2022/06/26 08:00:57;;;;;;;12.15;10.18;;;20.10;99.90;;;;;;5109203;28;20040;-70
2022/06/26 08:03:23;;;;;;;13.02;9.05;;;19.80;99.90;;;;;;5111585;28;20043;-71
2022/06/26 08:05:48;;;;;;;13.30;10.60;;;20.90;99.90;;;;;;5112909;28;20077;-71
2022/06/26 08:08:14;;;;;;;12.52;9.55;;;20.20;99.90;;;;;;5112839;28;20039;-71
2022/06/26 08:10:40;;;;;;;8.82;7.45;;;20.00;99.90;;;;;;5110638;28;20512;-71
2022/06/26 08:13:07;;;;;;;11.15;6.90;;;21.00;99.90;;;;;;5111423;28;20123;-71
2022/06/26 08:15:33;;;;;;;6.93;4.55;;;20.50;99.90;;;;;;5111634;28;20127;-71
2022/06/26 08:17:59;;;;;;;6.53;4.60;;;20.80;99.90;;;;;;5111372;28;20084;-71
2022/06/26 08:20:24;;;;;;;8.30;4.70;;;21.20;99.90;;;;;;5110510;28;20039;-71
2022/06/26 08:22:50;;;;;;;7.75;4.32;;;21.10;99.90;;;;;;5111236;28;20078;-71
2022/06/26 08:25:19;;;;;;;5.97;5.18;;;21.00;99.90;;;;;;5112365;28;20032;-71
2022/06/26 08:27:44;;;;;;;5.57;4.65;;;20.80;99.90;;;;;;5111204;28;20043;-71
2022/06/26 08:30:10;;;;;;;6.65;5.03;;;20.40;99.90;;;;;;5110726;28;20039;-71
2022/06/26 08:32:37;;;;;;;8.60;4.82;;;20.10;99.90;;;;;;5111347;28;20417;-71
2022/06/26 08:35:07;;;;;;;8.50;5.25;;;19.70;99.90;;;;;;5111398;28;20450;-71
2022/06/26 08:37:33;;;;;;;7.38;4.05;;;19.80;99.90;;;;;;5111059;28;20089;-71
2022/06/26 08:39:58;;;;;;;5.82;4.50;;;20.30;99.90;;;;;;5111821;28;20050;-70
2022/06/26 08:42:26;;;;;;;5.28;3.63;;;21.90;99.90;;;;;;5112542;28;20031;-70
2022/06/26 08:44:58;;;;;;;5.57;4.10;;;20.90;99.90;;;;;;5094321;28;20527;-71
2022/06/26 08:47:25;;;;;;;6.18;4.05;;;21.20;99.90;;;;;;5111008;28;20130;-71
2022/06/26 08:49:55;;;;;;;5.82;3.33;;;21.30;99.90;;;;;;5093175;28;20036;-71
2022/06/26 08:52:21;;;;;;;5.22;3.47;;;21.00;99.90;;;;;;5110974;28;20038;-71
2022/06/26 08:54:48;;;;;;;6.50;3.25;;;21.00;99.90;;;;;;5111384;28;20039;-70
2022/06/26 08:57:15;;;;;;;4.55;3.40;;;21.20;99.90;;;;;;5111012;28;20036;-73
2022/06/26 08:59:42;;;;;;;6.10;3.92;;;20.90;99.90;;;;;;5110353;28;20039;-71
2022/06/26 09:02:07;;;;;;;3.85;3.40;;;21.60;99.90;;;;;;5092634;28;20035;-71
2022/06/26 09:04:35;;;;;;;4.60;3.10;;;21.10;99.90;;;;;;5094039;28;20067;-71
2022/06/26 09:07:01;;;;;;;7.68;2.95;;;21.30;99.90;;;;;;5110889;28;20039;-71
2022/06/26 09:09:27;;;;;;;4.07;2.60;;;21.60;99.90;;;;;;5111311;28;20120;-71
2022/06/26 09:11:55;;;;;;;3.28;2.28;;;23.00;99.90;;;;;;5110828;28;20043;-72
2022/06/26 09:14:22;;;;;;;2.40;1.98;;;22.90;99.90;;;;;;5112593;28;20075;-71
2022/06/26 09:16:49;;;;;;;5.97;1.83;;;21.70;99.90;;;;;;5111961;28;20035;-71
2022/06/26 09:19:33;;;;;;;4.93;2.03;;;21.80;99.90;;;;;;5111657;28;20344;-71
2022/06/26 09:22:13;;;;;;;7.18;3.55;;;21.70;99.90;;;;;;5112070;28;20106;-71
2022/06/26 09:24:50;;;;;;;5.07;2.88;;;23.30;99.90;;;;;;5112086;28;20039;-71
2022/06/26 09:27:16;;;;;;;4.63;2.65;;;22.40;99.90;;;;;;5111833;28;20040;-72
2022/06/26 09:29:49;;;;;;;5.03;2.63;;;21.90;99.90;;;;;;5111411;28;20036;-71
2022/06/26 09:32:16;;;;;;;4.85;3.20;;;23.40;99.90;;;;;;5112039;28;20036;-71
2022/06/26 09:34:51;;;;;;;3.90;2.83;;;22.00;99.90;;;;;;5112137;28;20040;-71
2022/06/26 09:37:19;;;;;;;5.55;3.85;;;21.80;99.90;;;;;;5114294;28;20043;-71
2022/06/26 09:39:46;;;;;;;4.55;3.10;;;21.80;99.90;;;;;;5115293;28;20096;-71
2022/06/26 09:42:18;;;;;;;5.90;2.70;;;22.30;99.90;;;;;;5114561;28;20075;-71
2022/06/26 09:44:54;;;;;;;2.97;2.03;;;22.50;99.90;;;;;;5114578;28;20083;-71
2022/06/26 09:47:25;;;;;;;10.55;3.25;;;22.30;99.90;;;;;;5114637;28;20164;-71
2022/06/26 09:49:53;;;;;;;3.03;1.90;;;22.40;99.90;;;;;;5096465;28;20074;-71
2022/06/26 09:52:21;;;;;;;3.70;2.75;;;22.10;99.90;;;;;;5115607;28;20056;-71
2022/06/26 09:54:48;;;;;;;3.60;2.70;;;23.40;99.90;;;;;;5097349;28;20524;-72
2022/06/26 09:57:14;;;;;;;4.63;2.88;;;22.20;99.90;;;;;;5114142;28;20493;-71
2022/06/26 09:59:40;;;;;;;6.03;3.75;;;22.80;99.90;;;;;;5113509;28;20088;-73
2022/06/26 10:07:47;;;;;;;5.78;2.85;;;23.70;99.90;;;;;;5114343;28;20070;-72
2022/06/26 10:10:15;;;;;;;4.40;2.55;;;23.40;99.90;;;;;;5096326;28;20386;-70
2022/06/26 10:12:41;;;;;;;5.85;2.90;;;21.20;99.90;;;;;;5113726;28;20050;-72
2022/06/26 10:15:09;;;;;;;4.78;2.70;;;22.90;99.90;;;;;;5113989;28;20124;-72
2022/06/26 10:17:59;;;;;;;2.78;2.45;;;22.80;99.90;;;;;;5113951;28;20409;-72
2022/06/26 10:20:28;;;;;;;4.85;2.80;;;22.90;99.90;;;;;;5113070;28;20043;-72
2022/06/26 10:22:54;;;;;;;6.18;2.63;;;22.50;99.90;;;;;;5113766;28;20160;-72
2022/06/26 10:25:27;;;;;;;2.63;2.17;;;23.10;99.90;;;;;;5096889;28;20130;-72
2022/06/26 10:27:53;;;;;;;4.45;2.05;;;22.50;99.90;;;;;;5113799;28;20119;-72
2022/06/26 10:30:28;;;;;;;3.80;1.98;;;22.60;99.90;;;;;;5112544;28;20086;-72
2022/06/26 10:33:10;;;;;;;7.72;2.72;;;22.60;99.90;;;;;;5096686;28;20446;-73
2022/06/26 10:35:38;;;;;;;3.97;2.63;;;22.70;99.90;;;;;;5114593;28;20036;-72
2022/06/26 10:38:26;;;;;;;4.50;2.58;;;22.80;99.90;;;;;;5096377;28;20062;-72
2022/06/26 10:44:04;;;;;;;8.27;3.30;;;22.70;99.90;;;;;;5113127;28;20104;-72
2022/06/26 10:46:46;;;;;;;5.43;3.15;;;22.60;99.90;;;;;;5096091;28;20036;-72
2022/06/26 10:49:12;;;;;;;8.47;3.83;;;22.80;99.90;;;;;;5095666;28;20048;-72
2022/06/26 10:51:40;;;;;;;7.10;3.53;;;22.80;99.90;;;;;;5113982;28;20043;-72
2022/06/26 10:54:24;;;;;;;4.43;3.20;;;24.20;99.90;;;;;;5095902;28;20122;-72
2022/06/26 10:57:13;;;;;;;6.20;3.28;;;23.10;99.90;;;;;;5114653;28;20028;-73
2022/06/26 10:59:43;;;;;;;7.90;4.40;;;23.20;99.90;;;;;;5112404;28;20617;-72
2022/06/26 11:02:13;;;;;;;7.53;3.50;;;22.90;99.90;;;;;;5113023;28;20081;-72
2022/06/26 11:04:50;;;;;;;6.20;4.03;;;23.30;99.90;;;;;;5113183;28;20389;-72
2022/06/26 11:07:19;;;;;;;6.22;3.53;;;23.50;99.90;;;;;;5114175;28;20036;-73
2022/06/26 11:09:45;;;;;;;5.30;3.25;;;23.60;99.90;;;;;;5111897;28;20036;-72
2022/06/26 11:12:11;;;;;;;5.25;3.40;;;24.10;99.90;;;;;;5113968;28;20039;-72
2022/06/26 11:14:37;;;;;;;7.20;3.63;;;24.50;99.90;;;;;;5095467;28;20040;-72
2022/06/26 11:17:05;;;;;;;5.70;3.63;;;23.60;99.90;;;;;;5112592;28;20035;-72
2022/06/26 11:20:46;;;;;;;4.70;3.55;;;23.50;99.90;;;;;;5094776;28;20036;-72
2022/06/26 11:22:18;;;;;;;8.48;4.47;;;24.30;99.90;;;;;;5112202;28;20036;-74
2022/06/26 11:24:56;;;;;;;6.85;3.63;;;25.00;99.90;;;;;;5113783;28;20035;-72
2022/06/26 11:27:27;;;;;;;11.50;3.55;;;23.50;99.90;;;;;;5112637;28;20126;-72
2022/06/26 11:29:54;;;;;;;4.20;3.75;;;24.10;99.90;;;;;;5111570;28;20103;-72
2022/06/26 11:32:24;;;;;;;6.93;3.80;;;24.20;99.90;;;;;;5112215;28;20043;-73
2022/06/26 11:34:52;;;;;;;5.40;2.67;;;23.40;99.90;;;;;;5112449;28;20040;-72
2022/06/26 11:37:35;;;;;;;4.30;2.67;;;25.20;99.90;;;;;;5112523;28;20179;-72
2022/06/26 11:40:14;;;;;;;3.08;2.00;;;24.40;99.90;;;;;;5112880;28;20103;-72
2022/06/26 11:42:40;;;;;;;5.38;2.00;;;23.30;99.90;;;;;;5113465;28;20043;-72
2022/06/26 11:45:07;;;;;;;4.28;2.40;;;24.20;99.90;;;;;;5112224;28;20079;-71
2022/06/26 11:47:34;;;;;;;5.47;2.42;;;23.70;99.90;;;;;;5112062;28;20040;-72
2022/06/26 11:49:59;;;;;;;5.07;2.50;;;23.60;99.90;;;;;;5110944;28;20087;-73
2022/06/26 11:52:25;;;;;;;6.05;2.90;;;24.30;99.90;;;;;;5112246;28;20044;-72
2022/06/26 11:55:01;;;;;;;5.38;2.90;;;23.70;99.90;;;;;;5112184;28;20122;-73
2022/06/26 11:57:27;;;;;;;7.97;3.90;;;23.60;99.90;;;;;;5112071;28;20040;-73
2022/06/26 11:59:53;;;;;;;5.57;3.10;;;23.50;99.90;;;;;;5111475;28;20040;-73
2022/06/26 12:02:22;;;;;;;6.78;3.60;;;23.20;99.90;;;;;;5047391;22;20140;-71
2022/06/26 12:04:58;;;;;;;5.00;3.42;;;24.00;99.90;;;;;;5012733;28;20045;-71
2022/06/26 12:07:24;;;;;;;6.95;3.50;;;23.20;99.90;;;;;;5027764;28;20033;-71
2022/06/26 12:09:50;;;;;;;5.80;3.42;;;23.20;99.90;;;;;;5010528;28;20470;-71
2022/06/26 12:12:15;;;;;;;8.60;4.10;;;23.60;99.90;;;;;;5011041;28;20038;-71
2022/06/26 12:14:52;;;;;;;6.72;4.45;;;23.80;99.90;;;;;;5012225;28;20077;-71
2022/06/26 12:17:22;;;;;;;6.22;5.28;;;23.10;99.90;;;;;;5012056;28;20037;-71
2022/06/26 12:19:48;;;;;;;9.88;5.57;;;23.20;99.90;;;;;;5010380;28;20033;-71
2022/06/26 12:22:13;;;;;;;10.55;5.72;;;23.10;99.90;;;;;;5010805;28;20506;-71
2022/06/26 12:24:50;;;;;;;7.53;6.20;;;23.60;99.90;;;;;;5010992;28;20316;-71
2022/06/26 12:27:15;;;;;;;9.55;6.03;;;22.50;99.90;;;;;;5010803;28;20038;-71
2022/06/26 12:29:41;;;;;;;10.20;5.00;;;22.50;99.90;;;;;;5011457;28;20095;-71
2022/06/26 12:32:06;;;;;;;7.85;4.70;;;22.60;99.90;;;;;;5011586;28;20500;-71
2022/06/26 12:34:32;;;;;;;5.75;4.38;;;22.40;99.90;;;;;;5011628;28;20049;-72
2022/06/26 12:36:58;;;;;;;7.05;4.00;;;22.50;99.90;;;;;;5016121;28;20168;-71
2022/06/26 12:39:23;;;;;;;3.63;2.45;;;23.20;99.90;;;;;;5010157;28;20128;-71
2022/06/26 12:41:49;;;;;;;4.60;2.42;;;23.30;99.90;;;;;;5010629;28;20038;-71
2022/06/26 12:44:15;;;;;;;3.53;2.45;;;22.80;99.90;;;;;;5011763;28;20054;-71
2022/06/26 12:46:41;;;;;;;4.28;2.50;;;22.70;99.90;;;;;;5011929;28;20145;-72
2022/06/26 12:49:06;;;;;;;5.82;3.10;;;22.50;99.90;;;;;;4993388;28;20045;-70
2022/06/26 12:51:32;;;;;;;3.53;2.50;;;22.70;99.90;;;;;;5012665;28;20049;-71
2022/06/26 12:53:58;;;;;;;2.72;2.42;;;23.70;99.90;;;;;;5016349;28;20050;-72
2022/06/26 12:56:24;;;;;;;4.35;3.30;;;23.30;99.90;;;;;;5012987;28;20042;-71